Sunday, January 20, 2019, 6:57 AM GMT
Back to Local

CWQH, Lennoxville

Location: , , Canada Lat: 45.367
Local Time: 6:57 AM GMT ( 6:57 GMT) Lon: -71.817
Time Zone: GMT Elev: 593 ft

Show me the last for .
Show Coded

Time T Td Feel RH Dir Speed Gust Alt SLP Vis Weather Sky Remarks
2019-01-20 06:00 1 -3 -13 80 60° 8 - - - 0 None
2019-01-20 05:00 1 -4 -13 80 50° 8 - - - 0 None
2019-01-20 04:00 0 -5 -10 80 40° 5 - - - 0 None
2019-01-20 03:00 -1 -5 -11 79 40° 5 - - - 0 None
2019-01-20 02:00 -3 -7 - 79 - Calm - - - 0 None
2019-01-20 01:00 -4 -9 - 79 200° 1 - - - 0 None
2019-01-20 00:00 -5 -9 - 78 290° 2 - - - 0 None
2019-01-19 23:00 -4 -10 - 76 10° 2 - - - 0 None
2019-01-19 22:00 -5 -12 -15 67 310° 5 - - - 0 None
2019-01-19 21:00 -4 -14 -13 62 290° 3 - - - 0 None
2019-01-19 20:00 -3 -14 -11 58 290° 3 - - - 0 None
2019-01-19 19:00 -6 -17 -14 56 280° 3 - - - 0 None
2019-01-19 18:00 -7 -18 - 56 270° 2 - - - 0 None
2019-01-19 17:00 -8 -18 -21 59 300° 6 - - - 0 None
2019-01-19 16:00 -7 -19 -18 54 290° 5 - - - 0 None
2019-01-19 15:00 -10 -20 -23 59 310° 6 - - - 0 None
2019-01-19 14:00 -10 -19 -21 62 340° 5 - - - 0 None
2019-01-19 13:00 -10 -18 -23 64 310° 6 - - - 0 None
2019-01-19 12:00 -9 -18 -22 64 310° 6 - - - 0 None
2019-01-19 11:00 -6 -17 -17 58 350° 5 - - - 0 None
2019-01-19 10:00 -4 -13 -14 63 350° 5 - - - 0 None
2019-01-19 09:00 -1 -9 -13 67 340° 6 - - - 0 None
2019-01-19 08:00 3 -6 -14 66 320° 12 - - - 0 None
2019-01-19 07:00 5 -6 -7 58 340° 7 - - - 0 None

Support USWX by starting your Amazon purchase here.